KHPN

Westchester County Airport

White Plains, New York, USA
KHPN 212113Z 2121/2218 29011KT P6SM SCT250 FM212300 30008KT P6SM SCT250 FM220100 31005KT P6SM SKC FM221400 31008KT P6SM SKC AMD NOT SKED
Issued Valid From Valid To
Apr-21 @ 21:13 UTC
(2 hours ago)
Apr-21 @ 21:00 UTC
(2 hours ago)
Apr-22 @ 18:00 UTC
(in 19 hours)
Apr-21 @ 21:00 to Apr-21 @ 23:00
KHPN 212113Z 2121/2218 29011KT P6SM SCT250
Wind Visibility Clouds
290° at 11 knots Greater than 6 miles
  • Scattered at 25,000' AGL
From Apr-21 @ 23:00 to Apr-22 @ 01:00
FM212300 30008KT P6SM SCT250
Wind Visibility Clouds
300° at 8 knots Greater than 6 miles
  • Scattered at 25,000' AGL
From Apr-22 @ 01:00 to Apr-22 @ 14:00
FM220100 31005KT P6SM SKC
Wind Visibility Clouds
310° at 5 knots Greater than 6 miles
  • Clear skies
From Apr-22 @ 14:00 to Apr-22 @ 18:00
FM221400 31008KT P6SM SKC AMD NOT SKED
Wind Visibility Clouds
310° at 8 knots Greater than 6 miles
  • Clear skies
KHPN 212113Z 2121/2218 29011KT P6SM SCT250 FM212300 30008KT P6SM SCT250 FM220100 31005KT P6SM SKC FM221400 31008KT P6SM SKC AMD NOT SKED
Issued Apr-21 @ 21:13 UTC
(2 hours ago)
Valid From Apr-21 @ 21:00 UTC
(2 hours ago)
Valid To Apr-22 @ 18:00 UTC
(in 19 hours)
Apr-21 @ 21:00 - Apr-21 @ 23:00
Wind Visibility
290° at 11 knots Greater than 6 miles
Clouds
  • Scattered at 25,000' AGL
From Apr-21 @ 23:00 - Apr-22 @ 01:00
Wind Visibility
300° at 8 knots Greater than 6 miles
Clouds
  • Scattered at 25,000' AGL
From Apr-22 @ 01:00 - Apr-22 @ 14:00
Wind Visibility
310° at 5 knots Greater than 6 miles
Clouds
  • Clear skies
From Apr-22 @ 14:00 - Apr-22 @ 18:00
Wind Visibility
310° at 8 knots Greater than 6 miles
Clouds
  • Clear skies